Time;durP1;ratioP1;P1;durP2;ratioP2;P2;SDS_P1;SDS_P2;PMS_P1;PMS_P2;Temp;Humidity;BMP_temperature;BMP_pressure;BME280_temperature;BME280_humidity;BME280_pressure;Samples;Min_cycle;Max_cycle;Signal;HPM_P1;HPM_P2
2022/11/23 00:00:22;;;;;;;;;;;;;;;26.01;31.41;99982.44;4980038;28;1176;-24
2022/11/23 00:02:52;;;;;;;;;;;;;;;25.97;31.23;99981.19;4962633;28;972;-25
2022/11/23 00:05:17;;;;;;;;;;;;;;;25.96;31.40;99971.41;4979410;28;1228;-23
2022/11/23 00:07:42;;;;;;;;;;;;;;;25.94;31.46;99973.50;4979053;28;1177;-22
2022/11/23 00:10:08;;;;;;;;;;;;;;;26.03;31.14;99969.63;4979403;28;1902;-23
2022/11/23 00:12:33;;;;;;;;;;;;;;;25.96;31.26;99966.00;4979539;28;1146;-23
2022/11/23 00:14:58;;;;;;;;;;;;;;;26.00;31.37;99972.69;4978593;28;894;-23
2022/11/23 00:17:24;;;;;;;;;;;;;;;25.98;30.96;99968.50;4978742;28;2223;-22
2022/11/23 00:19:49;;;;;;;;;;;;;;;26.01;31.43;99970.81;4979257;28;1200;-23
2022/11/23 00:22:14;;;;;;;;;;;;;;;26.04;31.30;99967.75;4979151;28;1205;-23
2022/11/23 00:24:40;;;;;;;;;;;;;;;26.08;31.43;99973.56;4978482;28;1177;-25
2022/11/23 00:27:05;;;;;;;;;;;;;;;26.00;31.59;99971.84;4978457;28;948;-23
2022/11/23 00:29:30;;;;;;;;;;;;;;;26.02;31.39;99962.56;4979010;28;1928;-23
2022/11/23 00:31:55;;;;;;;;;;;;;;;26.02;31.50;99967.13;4979088;28;1284;-22
2022/11/23 00:34:21;;;;;;;;;;;;;;;25.96;31.55;99971.41;4978668;28;1460;-23
2022/11/23 00:36:46;;;;;;;;;;;;;;;25.98;31.58;99968.50;4977899;28;1209;-22
2022/11/23 00:39:11;;;;;;;;;;;;;;;26.07;31.63;99969.22;4978386;28;933;-23
2022/11/23 00:41:37;;;;;;;;;;;;;;;26.04;31.46;99960.50;4979173;28;1133;-24
2022/11/23 00:44:02;;;;;;;;;;;;;;;26.02;31.47;99959.88;4978562;28;1113;-23
2022/11/23 00:46:27;;;;;;;;;;;;;;;26.00;31.39;99953.84;4978869;28;2372;-24
2022/11/23 00:48:53;;;;;;;;;;;;;;;26.00;31.46;99950.28;4988361;28;1117;-22
2022/11/23 00:51:22;;;;;;;;;;;;;;;26.01;31.53;99939.31;4981459;28;1945;-23
2022/11/23 00:53:48;;;;;;;;;;;;;;;25.98;31.46;99939.72;4978402;28;1168;-23
2022/11/23 00:56:13;;;;;;;;;;;;;;;25.97;31.42;99945.31;4978644;28;1134;-22
2022/11/23 00:58:39;;;;;;;;;;;;;;;25.94;31.66;99933.06;4978031;28;1153;-23
2022/11/23 01:01:04;;;;;;;;;;;;;;;25.94;31.74;99933.06;4978783;28;1189;-26
2022/11/23 01:03:29;;;;;;;;;;;;;;;25.98;31.80;99928.09;4978072;28;1244;-22
2022/11/23 01:05:55;;;;;;;;;;;;;;;26.02;31.58;99927.53;4978430;28;1059;-23
2022/11/23 01:08:20;;;;;;;;;;;;;;;26.00;31.61;99921.50;4978434;28;1134;-22
2022/11/23 01:10:46;;;;;;;;;;;;;;;26.05;31.34;99910.13;4983144;28;1902;-23
2022/11/23 01:13:11;;;;;;;;;;;;;;;25.99;31.54;99902.84;4987614;28;1137;-23
2022/11/23 01:15:36;;;;;;;;;;;;;;;25.97;31.74;99907.56;4977793;28;1811;-23
2022/11/23 01:18:01;;;;;;;;;;;;;;;25.91;32.04;99893.00;4978438;28;1134;-23
2022/11/23 01:20:27;;;;;;;;;;;;;;;25.96;31.80;99893.25;4978157;28;1122;-23
2022/11/23 01:22:52;;;;;;;;;;;;;;;26.02;31.78;99887.13;4978366;28;1260;-23
2022/11/23 01:25:17;;;;;;;;;;;;;;;26.00;31.87;99883.78;4978160;28;1173;-23
2022/11/23 01:27:43;;;;;;;;;;;;;;;26.00;32.00;99880.22;4978210;28;1189;-23
2022/11/23 01:30:08;;;;;;;;;;;;;;;26.00;31.97;99894.56;4978287;28;1902;-23
2022/11/23 01:32:34;;;;;;;;;;;;;;;26.03;31.68;99898.69;4978543;28;1095;-22
2022/11/23 01:34:59;;;;;;;;;;;;;;;26.02;31.72;99894.34;4977455;28;1150;-23
2022/11/23 01:37:24;;;;;;;;;;;;;;;26.04;31.90;99893.13;4977590;28;1189;-22
2022/11/23 01:39:49;;;;;;;;;;;;;;;26.05;31.89;99891.25;4977565;28;1181;-23
2022/11/23 01:42:15;;;;;;;;;;;;;;;26.00;31.69;99883.78;4977960;28;1067;-22
2022/11/23 01:44:41;;;;;;;;;;;;;;;26.02;31.70;99878.19;4977709;28;1141;-23
2022/11/23 01:47:06;;;;;;;;;;;;;;;26.04;31.90;99876.94;4977801;28;2643;-22
2022/11/23 01:49:32;;;;;;;;;;;;;;;26.01;31.97;99880.03;4977253;28;1898;-22
2022/11/23 01:51:58;;;;;;;;;;;;;;;26.02;31.94;99880.88;4977123;28;960;-23
2022/11/23 01:54:25;;;;;;;;;;;;;;;26.00;31.87;99869.44;4977247;28;1110;-22
2022/11/23 01:56:55;;;;;;;;;;;;;;;25.98;31.91;99872.34;4964753;28;1091;-23
2022/11/23 01:59:21;;;;;;;;;;;;;;;25.99;31.67;99867.81;4978430;28;1106;-23
2022/11/23 02:01:46;;;;;;;;;;;;;;;25.99;31.87;99859.72;4977512;28;1181;-22
2022/11/23 02:04:12;;;;;;;;;;;;;;;25.98;31.90;99852.63;4975545;28;1315;-24
2022/11/23 02:06:37;;;;;;;;;;;;;;;25.96;31.83;99839.38;4977379;28;1102;-23
2022/11/23 02:09:02;;;;;;;;;;;;;;;26.00;31.87;99846.03;4976009;28;1890;-23
2022/11/23 02:11:28;;;;;;;;;;;;;;;26.00;31.96;99837.13;4976460;28;1255;-24
2022/11/23 02:13:55;;;;;;;;;;;;;;;25.98;31.98;99837.31;4977030;28;1106;-24
2022/11/23 02:16:21;;;;;;;;;;;;;;;25.98;32.22;99828.38;4966752;28;1823;-23
2022/11/23 02:18:46;;;;;;;;;;;;;;;26.02;32.01;99822.44;4976549;28;1182;-22
2022/11/23 02:21:12;;;;;;;;;;;;;;;26.03;31.75;99813.31;4977087;28;1134;-23
2022/11/23 02:23:43;;;;;;;;;;;;;;;26.04;31.96;99823.03;4976909;28;1231;-23
2022/11/23 02:26:10;;;;;;;;;;;;;;;26.04;32.02;99806.88;4977318;28;1189;-24
2022/11/23 02:28:36;;;;;;;;;;;;;;;26.04;31.89;99800.69;4976933;28;1162;-23
2022/11/23 02:31:02;;;;;;;;;;;;;;;26.11;31.73;99803.41;4959459;28;1918;-22
2022/11/23 02:33:27;;;;;;;;;;;;;;;26.10;31.91;99794.47;4976401;28;1122;-22
2022/11/23 02:35:54;;;;;;;;;;;;;;;26.07;31.92;99805.66;4976882;28;1184;-22
2022/11/23 02:38:19;;;;;;;;;;;;;;;26.05;31.71;99802.31;4976729;28;1134;-22
2022/11/23 02:40:44;;;;;;;;;;;;;;;26.03;31.69;99802.53;4959258;28;1434;-22
2022/11/23 02:43:10;;;;;;;;;;;;;;;26.06;31.69;99785.13;4976148;28;1071;-22
2022/11/23 02:45:35;;;;;;;;;;;;;;;26.02;31.34;99791.94;4977166;28;1836;-22
2022/11/23 02:48:00;;;;;;;;;;;;;;;26.03;31.81;99789.06;4976821;28;1094;-23
2022/11/23 02:50:26;;;;;;;;;;;;;;;26.01;31.63;99784.88;4975783;28;1957;-22
2022/11/23 02:52:51;;;;;;;;;;;;;;;26.00;31.99;99781.38;4976488;28;1106;-22
2022/11/23 02:55:16;;;;;;;;;;;;;;;26.04;31.68;99782.63;4976580;28;1216;-24
2022/11/23 02:57:42;;;;;;;;;;;;;;;26.04;31.51;99779.94;4976052;28;1161;-22
2022/11/23 03:00:07;;;;;;;;;;;;;;;26.02;32.12;99782.00;4975644;28;1153;-22
2022/11/23 03:02:32;;;;;;;;;;;;;;;26.02;31.89;99782.00;4976129;28;1137;-22
2022/11/23 03:04:58;;;;;;;;;;;;;;;26.09;31.87;99784.72;4976190;28;1067;-22
2022/11/23 03:07:23;;;;;;;;;;;;;;;26.10;31.66;99774.78;4976446;28;1094;-23
2022/11/23 03:09:48;;;;;;;;;;;;;;;26.02;31.84;99779.31;4976268;28;1964;-22
2022/11/23 03:12:15;;;;;;;;;;;;;;;26.04;31.57;99769.16;4975934;28;1205;-25
2022/11/23 03:14:40;;;;;;;;;;;;;;;26.10;31.38;99769.38;4975618;28;1157;-23
2022/11/23 03:17:06;;;;;;;;;;;;;;;26.10;31.57;99762.13;4976139;28;1781;-25
2022/11/23 03:19:31;;;;;;;;;;;;;;;26.10;31.57;99762.13;4976141;28;1146;-22
2022/11/23 03:21:56;;;;;;;;;;;;;;;26.06;31.80;99758.16;4976350;28;1134;-22
2022/11/23 03:24:21;;;;;;;;;;;;;;;26.07;31.51;99754.47;4975672;28;1202;-23
2022/11/23 03:26:47;;;;;;;;;;;;;;;26.06;31.65;99752.78;4975963;28;1245;-23
2022/11/23 03:29:12;;;;;;;;;;;;;;;26.06;31.63;99747.38;4976490;28;1910;-23
2022/11/23 03:31:37;;;;;;;;;;;;;;;26.02;31.60;99738.06;4976285;28;1122;-23
2022/11/23 03:34:03;;;;;;;;;;;;;;;26.01;31.61;99731.81;4975462;28;975;-22
2022/11/23 03:36:28;;;;;;;;;;;;;;;26.01;31.97;99725.59;4976246;28;1141;-22
2022/11/23 03:38:53;;;;;;;;;;;;;;;25.99;32.04;99725.78;4976290;28;1118;-23
2022/11/23 03:41:19;;;;;;;;;;;;;;;25.94;32.08;99730.97;4975626;28;1102;-22
2022/11/23 03:43:44;;;;;;;;;;;;;;;25.96;31.97;99730.78;4975585;28;1126;-24
2022/11/23 03:46:09;;;;;;;;;;;;;;;25.82;32.15;99727.16;4975932;28;2358;-23
2022/11/23 03:48:35;;;;;;;;;;;;;;;25.94;31.79;99727.44;4975933;28;1189;-22
2022/11/23 03:51:00;;;;;;;;;;;;;;;25.96;31.95;99728.91;4975810;28;1887;-23
2022/11/23 03:53:25;;;;;;;;;;;;;;;25.83;31.78;99718.88;4975657;28;1185;-23
2022/11/23 03:55:53;;;;;;;;;;;;;;;25.80;31.93;99716.59;4975126;28;1110;-23
2022/11/23 03:58:19;;;;;;;;;;;;;;;25.78;32.10;99710.56;4976275;28;1177;-22
2022/11/23 04:00:44;;;;;;;;;;;;;;;25.81;32.04;99710.16;4975645;28;1138;-22
2022/11/23 04:03:09;;;;;;;;;;;;;;;25.77;32.07;99707.06;4975183;28;1251;-22
2022/11/23 04:05:34;;;;;;;;;;;;;;;25.76;32.28;99704.53;4976030;28;1098;-23
2022/11/23 04:08:00;;;;;;;;;;;;;;;25.83;32.17;99705.41;4976083;28;1114;-22
2022/11/23 04:10:25;;;;;;;;;;;;;;;25.77;32.14;99701.69;4975898;28;1898;-23
2022/11/23 04:12:51;;;;;;;;;;;;;;;25.84;32.02;99700.88;4979047;28;1106;-22
2022/11/23 04:15:16;;;;;;;;;;;;;;;25.77;32.27;99700.84;4978667;28;1493;-23
2022/11/23 04:17:41;;;;;;;;;;;;;;;25.75;32.12;99702.88;4979490;28;2313;-24
2022/11/23 04:20:07;;;;;;;;;;;;;;;25.68;32.43;99700.16;4979552;28;1122;-22
2022/11/23 04:22:32;;;;;;;;;;;;;;;25.70;32.08;99695.41;4978911;28;1158;-23
2022/11/23 04:24:57;;;;;;;;;;;;;;;25.71;32.30;99699.75;4977958;28;1039;-23
2022/11/23 04:27:23;;;;;;;;;;;;;;;25.66;32.22;99696.81;4979062;28;1237;-23
2022/11/23 04:29:48;;;;;;;;;;;;;;;25.84;32.08;99700.88;4978930;28;1906;-22
2022/11/23 04:32:13;;;;;;;;;;;;;;;25.71;32.26;99704.34;4979611;28;1019;-23
2022/11/23 04:34:38;;;;;;;;;;;;;;;25.71;32.56;99707.84;4978255;28;1220;-22
2022/11/23 04:37:04;;;;;;;;;;;;;;;25.67;32.13;99695.81;4979658;28;1122;-22
2022/11/23 04:39:29;;;;;;;;;;;;;;;25.80;31.96;99692.34;4978528;28;1098;-22
2022/11/23 04:41:54;;;;;;;;;;;;;;;25.71;32.58;99693.56;4978703;28;1098;-24
2022/11/23 04:44:20;;;;;;;;;;;;;;;24.15;36.84;99700.22;4978654;28;1138;-23
2022/11/23 04:46:45;;;;;;;;;;;;;;;23.37;38.58;99696.91;4978726;28;2738;-23
2022/11/23 04:49:11;;;;;;;;;;;;;;;22.89;39.75;99694.50;4978929;28;1898;-23
2022/11/23 04:51:36;;;;;;;;;;;;;;;23.01;40.03;99695.72;4979015;28;1180;-22
2022/11/23 04:54:01;;;;;;;;;;;;;;;22.84;40.04;99695.00;4978045;28;1134;-21
2022/11/23 04:56:26;;;;;;;;;;;;;;;23.04;39.63;99689.97;4977851;28;1149;-21
2022/11/23 04:58:52;;;;;;;;;;;;;;;23.09;39.61;99686.75;4979220;28;1098;-21
2022/11/23 05:01:17;;;;;;;;;;;;;;;23.34;39.66;99689.19;4978329;28;1208;-22
2022/11/23 05:03:42;;;;;;;;;;;;;;;23.39;39.42;99680.63;4978310;28;1158;-22
2022/11/23 05:06:08;;;;;;;;;;;;;;;25.02;36.05;99681.50;4978428;28;1079;-22
2022/11/23 05:08:33;;;;;;;;;;;;;;;28.55;29.44;99689.91;4978565;28;1166;-21
2022/11/23 05:10:58;;;;;;;;;;;;;;;28.20;28.95;99683.84;4978251;28;2254;-21
2022/11/23 05:13:24;;;;;;;;;;;;;;;26.74;31.16;99680.19;4978149;28;1071;-23
2022/11/23 05:15:49;;;;;;;;;;;;;;;28.07;29.76;99678.50;4977634;28;1754;-22
2022/11/23 05:18:14;;;;;;;;;;;;;;;29.45;27.49;99678.94;4978243;28;1193;-22
2022/11/23 05:20:39;;;;;;;;;;;;;;;29.77;26.79;99673.41;4977885;28;1122;-22
2022/11/23 05:23:05;;;;;;;;;;;;;;;30.15;26.34;99678.75;4977300;28;1343;-23
2022/11/23 05:25:30;;;;;;;;;;;;;;;30.46;25.92;99673.34;4977365;28;1158;-23
2022/11/23 05:27:55;;;;;;;;;;;;;;;30.72;25.56;99680.25;4977894;28;1089;-23
2022/11/23 05:30:21;;;;;;;;;;;;;;;30.70;25.44;99678.84;4977903;28;1914;-22
2022/11/23 05:32:46;;;;;;;;;;;;;;;30.98;25.07;99678.16;4977581;28;1574;-22
2022/11/23 05:35:11;;;;;;;;;;;;;;;31.33;24.61;99686.56;4977832;28;1083;-23
2022/11/23 05:37:37;;;;;;;;;;;;;;;31.28;24.71;99684.56;4977069;28;1257;-23
2022/11/23 05:40:02;;;;;;;;;;;;;;;31.39;24.26;99686.47;4976434;28;1413;-23
2022/11/23 05:42:28;;;;;;;;;;;;;;;30.86;24.88;99674.63;4978067;28;1107;-23
2022/11/23 05:44:53;;;;;;;;;;;;;;;29.00;27.53;99664.59;4977582;28;1093;-23
2022/11/23 05:47:18;;;;;;;;;;;;;;;28.21;28.40;99669.28;4977135;28;1788;-23
2022/11/23 05:49:43;;;;;;;;;;;;;;;27.78;29.42;99661.81;4977834;28;1969;-23
2022/11/23 05:52:09;;;;;;;;;;;;;;;27.58;29.50;99677.00;4977876;28;1189;-23
2022/11/23 05:54:34;;;;;;;;;;;;;;;28.91;27.71;99672.13;4976506;28;1547;-23
2022/11/23 05:56:59;;;;;;;;;;;;;;;27.97;29.00;99669.00;4977388;28;1082;-26
2022/11/23 05:59:25;;;;;;;;;;;;;;;27.42;29.56;99664.81;4977446;28;1117;-24
2022/11/23 06:01:50;;;;;;;;;;;;;;;28.56;28.50;99659.13;4977606;28;1110;-23
2022/11/23 06:04:15;;;;;;;;;;;;;;;29.07;27.49;99662.69;4977053;28;1220;-23
2022/11/23 06:06:40;;;;;;;;;;;;;;;29.17;27.23;99667.59;4977391;28;1142;-24
2022/11/23 06:09:06;;;;;;;;;;;;;;;27.95;29.11;99656.72;4976567;28;1098;-23
2022/11/23 06:11:31;;;;;;;;;;;;;;;28.84;28.17;99653.25;4977208;28;1957;-23
2022/11/23 06:13:56;;;;;;;;;;;;;;;29.27;27.18;99653.53;4977237;28;1162;-23
2022/11/23 06:16:22;;;;;;;;;;;;;;;28.05;28.62;99653.56;4976409;28;2246;-23
2022/11/23 06:18:47;;;;;;;;;;;;;;;28.48;28.81;99654.78;4976981;28;1230;-23
2022/11/23 06:21:12;;;;;;;;;;;;;;;29.03;27.75;99663.34;4977340;28;1229;-23
2022/11/23 06:23:37;;;;;;;;;;;;;;;29.62;26.94;99665.69;4976382;28;1462;-23
2022/11/23 06:26:03;;;;;;;;;;;;;;;28.46;28.18;99657.72;4977253;28;1237;-22
2022/11/23 06:28:28;;;;;;;;;;;;;;;28.38;29.04;99662.56;4976615;28;1495;-22
2022/11/23 06:30:54;;;;;;;;;;;;;;;29.48;27.00;99656.81;4977104;28;1970;-23
2022/11/23 06:33:19;;;;;;;;;;;;;;;28.36;28.23;99654.69;4976926;28;1173;-23
2022/11/23 06:35:51;;;;;;;;;;;;;;;27.68;29.77;99648.69;4976757;28;1137;-22
2022/11/23 06:38:16;;;;;;;;;;;;;;;28.86;27.94;99655.75;4976602;28;1558;-23
2022/11/23 06:40:42;;;;;;;;;;;;;;;29.36;27.14;99648.66;4976311;28;1130;-22
2022/11/23 06:43:07;;;;;;;;;;;;;;;28.60;28.10;99649.50;4976688;28;1098;-22
2022/11/23 06:45:33;;;;;;;;;;;;;;;27.99;29.41;99644.47;4976882;28;1932;-23
2022/11/23 06:47:58;;;;;;;;;;;;;;;29.49;27.16;99644.13;4976630;28;1189;-22
2022/11/23 06:50:23;;;;;;;;;;;;;;;28.55;28.55;99639.34;4976829;28;1971;-23
2022/11/23 06:52:52;;;;;;;;;;;;;;;27.66;29.79;99635.41;4976414;28;1090;-22
2022/11/23 06:55:17;;;;;;;;;;;;;;;28.89;28.18;99639.06;4976564;28;1098;-22
2022/11/23 06:57:43;;;;;;;;;;;;;;;29.51;27.42;99644.72;4976762;28;1102;-24
2022/11/23 07:00:10;;;;;;;;;;;;;;;28.49;29.05;99634.81;4976482;28;1086;-22
2022/11/23 07:02:35;;;;;;;;;;;;;;;28.19;29.89;99633.53;4977159;28;1145;-22
2022/11/23 07:05:00;;;;;;;;;;;;;;;29.39;27.95;99640.06;4975859;28;1178;-22
2022/11/23 07:07:26;;;;;;;;;;;;;;;28.53;28.92;99636.03;4971501;28;1169;-22
2022/11/23 07:09:51;;;;;;;;;;;;;;;28.03;30.03;99637.56;4968110;28;1891;-23
2022/11/23 07:12:16;;;;;;;;;;;;;;;29.11;28.41;99637.84;4976074;28;1189;-24
2022/11/23 07:14:42;;;;;;;;;;;;;;;29.67;27.74;99635.19;4975059;28;1249;-23
2022/11/23 07:17:07;;;;;;;;;;;;;;;28.48;28.61;99635.84;4975787;28;1895;-24
2022/11/23 07:19:32;;;;;;;;;;;;;;;28.79;28.78;99638.75;4976483;28;1153;-23
2022/11/23 07:21:58;;;;;;;;;;;;;;;29.86;27.11;99635.16;4976351;28;1193;-23
2022/11/23 07:24:23;;;;;;;;;;;;;;;28.52;28.70;99633.53;4975168;28;1142;-22
2022/11/23 07:26:48;;;;;;;;;;;;;;;28.59;29.14;99635.13;4976315;28;1276;-23
2022/11/23 07:29:14;;;;;;;;;;;;;;;29.62;27.34;99633.16;4976122;28;1899;-22
2022/11/23 07:31:39;;;;;;;;;;;;;;;29.77;26.93;99632.75;4975491;28;1098;-22
2022/11/23 07:34:04;;;;;;;;;;;;;;;28.75;28.33;99632.09;4976408;28;1086;-22
2022/11/23 07:36:30;;;;;;;;;;;;;;;29.24;28.08;99645.00;4975774;28;1138;-23
2022/11/23 07:38:55;;;;;;;;;;;;;;;29.85;26.51;99647.88;4975220;28;1241;-22
2022/11/23 07:41:21;;;;;;;;;;;;;;;28.53;28.72;99643.34;4975341;28;1284;-22
2022/11/23 07:43:46;;;;;;;;;;;;;;;28.82;28.59;99643.72;4975714;28;1241;-23
2022/11/23 07:46:11;;;;;;;;;;;;;;;29.46;27.74;99638.09;4977287;28;1892;-23
2022/11/23 07:48:37;;;;;;;;;;;;;;;29.70;26.73;99642.84;4978950;28;1197;-22
2022/11/23 07:51:02;;;;;;;;;;;;;;;28.64;28.47;99636.38;4979085;28;1906;-23
2022/11/23 07:53:27;;;;;;;;;;;;;;;29.34;27.83;99635.31;4978347;28;1257;-22
2022/11/23 07:55:56;;;;;;;;;;;;;;;29.23;27.54;99638.75;4979534;28;1268;-23
2022/11/23 07:58:22;;;;;;;;;;;;;;;28.33;29.03;99633.47;4979272;28;1221;-23
2022/11/23 08:00:47;;;;;;;;;;;;;;;29.00;28.20;99620.44;4979115;28;1174;-22
2022/11/23 08:03:12;;;;;;;;;;;;;;;29.76;27.30;99643.84;4979212;28;1090;-23
2022/11/23 08:05:37;;;;;;;;;;;;;;;28.62;28.79;99633.03;4960599;28;1202;-22
2022/11/23 08:08:03;;;;;;;;;;;;;;;28.45;29.22;99636.28;4979372;28;1133;-22
2022/11/23 08:10:28;;;;;;;;;;;;;;;29.66;27.44;99636.25;4979591;28;1902;-22
2022/11/23 08:12:57;;;;;;;;;;;;;;;28.62;28.62;99628.47;4979396;28;1086;-23
2022/11/23 08:15:23;;;;;;;;;;;;;;;28.17;29.85;99622.09;4978894;28;1740;-22
2022/11/23 08:17:48;;;;;;;;;;;;;;;29.14;28.37;99627.41;4968875;28;898;-22
2022/11/23 08:20:13;;;;;;;;;;;;;;;29.28;27.71;99621.84;4979067;28;1177;-22
2022/11/23 08:22:38;;;;;;;;;;;;;;;28.38;29.05;99624.72;4977871;28;1338;-22
2022/11/23 08:25:04;;;;;;;;;;;;;;;29.08;28.49;99623.72;4979492;28;1087;-22
2022/11/23 08:27:29;;;;;;;;;;;;;;;29.52;27.64;99617.41;4979348;28;1125;-22
2022/11/23 08:29:54;;;;;;;;;;;;;;;28.38;28.92;99609.28;4978961;28;1910;-22
2022/11/23 08:32:20;;;;;;;;;;;;;;;28.51;29.10;99608.34;4979062;28;1284;-22
2022/11/23 08:34:45;;;;;;;;;;;;;;;29.14;28.38;99610.31;4978614;28;1053;-23
2022/11/23 08:37:10;;;;;;;;;;;;;;;29.16;27.86;99610.94;4978618;28;1093;-22
2022/11/23 08:39:36;;;;;;;;;;;;;;;28.29;29.02;99600.59;4978555;28;1205;-22
2022/11/23 08:42:01;;;;;;;;;;;;;;;29.07;28.29;99608.53;4979343;28;904;-22
2022/11/23 08:44:27;;;;;;;;;;;;;;;29.02;28.21;99607.53;4978500;28;1157;-22
2022/11/23 08:46:52;;;;;;;;;;;;;;;28.05;29.71;99607.59;4968937;28;1840;-22
2022/11/23 08:49:17;;;;;;;;;;;;;;;28.66;28.92;99608.03;4979418;28;1894;-22
2022/11/23 08:51:42;;;;;;;;;;;;;;;29.14;28.23;99603.03;4978360;28;940;-22
2022/11/23 08:54:08;;;;;;;;;;;;;;;28.82;28.55;99609.38;4978169;28;842;-22
2022/11/23 08:56:33;;;;;;;;;;;;;;;28.23;29.50;99598.75;4978529;28;1157;-22
2022/11/23 08:58:58;;;;;;;;;;;;;;;29.36;27.92;99594.47;4978531;28;1107;-22
2022/11/23 09:01:24;;;;;;;;;;;;;;;28.70;28.57;99601.13;4978418;28;1150;-22
2022/11/23 09:03:49;;;;;;;;;;;;;;;28.10;29.64;99594.28;4978311;28;1086;-22
2022/11/23 09:06:14;;;;;;;;;;;;;;;29.02;28.62;99594.00;4978706;28;1117;-22
2022/11/23 09:08:40;;;;;;;;;;;;;;;29.28;28.07;99592.88;4965335;28;1157;-22
2022/11/23 09:11:06;;;;;;;;;;;;;;;28.43;29.13;99590.53;4978488;28;1961;-22
2022/11/23 09:13:31;;;;;;;;;;;;;;;28.89;28.84;99590.34;4978272;28;1106;-22
2022/11/23 09:15:59;;;;;;;;;;;;;;;29.58;27.59;99588.56;4974313;28;1769;-22
2022/11/23 09:18:25;;;;;;;;;;;;;;;28.33;29.53;99579.38;4969959;28;1099;-22
2022/11/23 09:20:50;;;;;;;;;;;;;;;28.40;29.51;99590.97;4978188;28;1110;-22
2022/11/23 09:23:16;;;;;;;;;;;;;;;29.01;28.69;99581.53;4978180;28;1173;-22
2022/11/23 09:25:42;;;;;;;;;;;;;;;29.50;27.86;99576.16;4978380;28;1145;-22
2022/11/23 09:28:07;;;;;;;;;;;;;;;28.42;29.24;99571.81;4979059;28;1181;-22
2022/11/23 09:30:32;;;;;;;;;;;;;;;28.74;29.08;99577.16;4977774;28;1972;-22
2022/11/23 09:32:59;;;;;;;;;;;;;;;29.24;28.00;99574.59;4978129;28;1185;-22
2022/11/23 09:35:24;;;;;;;;;;;;;;;28.20;29.78;99567.59;4977976;28;1093;-22
2022/11/23 09:37:59;;;;;;;;;;;;;;;28.64;29.37;99560.59;4978230;28;1090;-22
2022/11/23 09:40:27;;;;;;;;;;;;;;;29.07;28.62;99559.78;4978813;28;1082;-22
2022/11/23 09:43:11;;;;;;;;;;;;;;;28.76;28.68;99558.00;4960981;28;1121;-24
2022/11/23 09:45:44;;;;;;;;;;;;;;;28.02;29.91;99544.00;4978274;28;1900;-22
2022/11/23 09:48:12;;;;;;;;;;;;;;;29.31;28.25;99556.41;4961137;28;1066;-22
2022/11/23 09:50:43;;;;;;;;;;;;;;;28.75;28.86;99565.28;4978078;28;1907;-22
2022/11/23 09:53:10;;;;;;;;;;;;;;;28.19;29.93;99552.41;4976920;28;1102;-22
2022/11/23 09:55:42;;;;;;;;;;;;;;;29.06;28.50;99555.41;4976588;28;1213;-22
2022/11/23 09:58:15;;;;;;;;;;;;;;;29.43;28.02;99549.16;4960209;28;1095;-22
2022/11/23 10:00:45;;;;;;;;;;;;;;;28.82;28.85;99551.69;4978206;28;1117;-22
2022/11/23 10:03:14;;;;;;;;;;;;;;;28.60;28.89;99561.06;4976997;28;1113;-22
2022/11/23 10:05:40;;;;;;;;;;;;;;;29.49;28.25;99554.72;4976926;28;1094;-22
2022/11/23 10:08:08;;;;;;;;;;;;;;;28.65;29.02;99559.53;4950167;28;1090;-22
2022/11/23 10:10:42;;;;;;;;;;;;;;;27.91;30.41;99553.63;4973777;28;1898;-23
2022/11/23 10:13:19;;;;;;;;;;;;;;;28.90;29.26;99545.97;4960078;28;1126;-22
2022/11/23 10:16:00;;;;;;;;;;;;;;;29.44;28.38;99548.09;4974311;28;1745;-23
2022/11/23 10:18:25;;;;;;;;;;;;;;;28.65;29.16;99536.03;4969124;28;1158;-25
2022/11/23 10:20:50;;;;;;;;;;;;;;;28.68;29.52;99543.69;4976947;28;1181;-23
2022/11/23 10:23:22;;;;;;;;;;;;;;;29.64;28.12;99543.50;4976396;28;1087;-22
2022/11/23 10:25:50;;;;;;;;;;;;;;;28.55;29.55;99536.53;4976958;28;1519;-25
2022/11/23 10:28:17;;;;;;;;;;;;;;;27.94;30.75;99530.75;4977877;28;1185;-22
2022/11/23 10:30:42;;;;;;;;;;;;;;;28.96;29.04;99536.16;4977309;28;1918;-22
2022/11/23 10:33:17;;;;;;;;;;;;;;;29.40;28.25;99533.34;4960266;28;1118;-22
2022/11/23 10:35:42;;;;;;;;;;;;;;;28.52;29.56;99528.88;4976957;28;1225;-22
2022/11/23 10:38:10;;;;;;;;;;;;;;;28.50;29.77;99533.66;4976506;28;1138;-22
2022/11/23 10:40:36;;;;;;;;;;;;;;;29.38;28.61;99526.53;4959736;28;1205;-22
2022/11/23 10:43:03;;;;;;;;;;;;;;;28.61;29.18;99515.91;4959620;28;952;-22
2022/11/23 10:45:29;;;;;;;;;;;;;;;27.97;30.25;99520.34;4958251;28;1884;-22
2022/11/23 10:47:57;;;;;;;;;;;;;;;28.95;29.10;99521.78;4965658;28;1143;-23
2022/11/23 10:50:32;;;;;;;;;;;;;;;29.46;28.02;99518.06;4977205;28;1959;-23
2022/11/23 10:53:21;;;;;;;;;;;;;;;28.35;29.55;99517.78;4977421;28;1201;-23
2022/11/23 10:55:47;;;;;;;;;;;;;;;28.99;29.20;99508.66;4966052;28;1331;-22
2022/11/23 10:58:34;;;;;;;;;;;;;;;29.33;28.26;99510.94;4976676;28;1150;-22
2022/11/23 11:01:03;;;;;;;;;;;;;;;28.34;29.87;99499.91;4976670;28;1146;-22
2022/11/23 11:03:29;;;;;;;;;;;;;;;28.88;29.50;99499.34;4976291;28;1173;-22
2022/11/23 11:05:56;;;;;;;;;;;;;;;29.32;29.04;99502.00;4976137;28;1208;-22
2022/11/23 11:08:21;;;;;;;;;;;;;;;29.18;28.73;99495.06;4947173;29;851;-23
2022/11/23 11:10:48;;;;;;;;;;;;;;;28.75;29.52;99491.38;4958421;28;1902;-23
2022/11/23 11:13:33;;;;;;;;;;;;;;;29.43;28.60;99494.97;4976221;28;1090;-23
2022/11/23 11:16:02;;;;;;;;;;;;;;;29.04;28.78;99480.91;4972856;28;1752;-23
2022/11/23 11:18:36;;;;;;;;;;;;;;;28.59;29.68;99478.22;4976082;28;1176;-22
2022/11/23 11:21:05;;;;;;;;;;;;;;;29.11;29.40;99476.22;4975672;28;1177;-22
2022/11/23 11:23:31;;;;;;;;;;;;;;;29.47;28.83;99479.09;4975769;28;1214;-23
2022/11/23 11:26:03;;;;;;;;;;;;;;;28.65;29.41;99486.50;4976004;28;1182;-23
2022/11/23 11:28:33;;;;;;;;;;;;;;;29.03;29.82;99480.06;4976084;28;1158;-22
2022/11/23 11:30:58;;;;;;;;;;;;;;;29.53;28.64;99491.69;4976550;28;1911;-23
2022/11/23 11:33:25;;;;;;;;;;;;;;;29.30;28.46;99479.72;4975857;28;1240;-25
2022/11/23 11:35:51;;;;;;;;;;;;;;;28.82;29.19;99471.34;4959094;28;1122;-23
2022/11/23 11:38:21;;;;;;;;;;;;;;;29.35;29.18;99470.91;4976376;28;1141;-22
2022/11/23 11:40:50;;;;;;;;;;;;;;;29.39;28.25;99468.56;4959569;28;1137;-22
2022/11/23 11:43:21;;;;;;;;;;;;;;;28.87;29.02;99486.06;4975668;28;1273;-24
2022/11/23 11:45:47;;;;;;;;;;;;;;;29.23;29.27;99489.81;4972539;28;1829;-22
2022/11/23 11:48:22;;;;;;;;;;;;;;;29.60;29.06;99482.66;4975481;28;1091;-23
2022/11/23 11:51:06;;;;;;;;;;;;;;;28.82;29.06;99481.31;4959178;28;1962;-23
2022/11/23 11:53:50;;;;;;;;;;;;;;;29.08;29.53;99476.66;4976295;28;1086;-23
2022/11/23 11:56:15;;;;;;;;;;;;;;;29.60;28.97;99478.09;4975708;28;1155;-23
2022/11/23 11:58:43;;;;;;;;;;;;;;;29.04;28.92;99468.19;4976136;28;1087;-24
2022/11/23 12:01:27;;;;;;;;;;;;;;;29.03;28.93;99469.22;4959354;28;1204;-24
2022/11/23 12:03:55;;;;;;;;;;;;;;;29.49;29.08;99471.56;4974966;28;1196;-22
2022/11/23 12:06:22;;;;;;;;;;;;;;;29.31;28.68;99481.38;4975931;28;1150;-23
2022/11/23 12:09:06;;;;;;;;;;;;;;;28.56;29.68;99480.56;4975298;28;904;-22
2022/11/23 12:11:32;;;;;;;;;;;;;;;29.20;29.25;99492.97;4975858;28;1969;-23
2022/11/23 12:14:03;;;;;;;;;;;;;;;29.46;28.54;99493.69;4975723;28;1244;-22
2022/11/23 12:16:31;;;;;;;;;;;;;;;28.51;30.03;99489.31;4958124;28;2315;-22
2022/11/23 12:19:15;;;;;;;;;;;;;;;28.93;29.69;99504.91;4975192;28;1241;-22
2022/11/23 12:21:53;;;;;;;;;;;;;;;29.58;28.53;99505.38;4975895;28;1182;-23
2022/11/23 12:24:18;;;;;;;;;;;;;;;28.67;29.34;99498.75;4974786;28;1217;-22
2022/11/23 12:26:45;;;;;;;;;;;;;;;28.42;30.11;99494.22;4975325;28;1264;-22
2022/11/23 12:29:18;;;;;;;;;;;;;;;29.57;28.57;99505.63;4958364;28;1206;-23
2022/11/23 12:31:50;;;;;;;;;;;;;;;28.66;29.51;99488.97;4957398;28;1903;-22
2022/11/23 12:34:16;;;;;;;;;;;;;;;27.50;30.45;99409.84;4961341;28;1234;-22
2022/11/23 12:36:44;;;;;;;;;;;;;;;29.08;29.42;99501.03;4978868;28;1206;-22
2022/11/23 12:39:21;;;;;;;;;;;;;;;29.20;28.59;99503.81;4961412;28;1305;-23
2022/11/23 12:41:52;;;;;;;;;;;;;;;28.50;29.73;99500.38;4978750;28;1173;-22
2022/11/23 12:44:20;;;;;;;;;;;;;;;29.23;28.78;99514.19;4978630;28;1213;-23
2022/11/23 12:46:46;;;;;;;;;;;;;;;29.40;28.48;99506.25;4978713;28;1805;-22
2022/11/23 12:49:11;;;;;;;;;;;;;;;28.46;29.61;99510.84;4978688;28;1341;-23
2022/11/23 12:51:55;;;;;;;;;;;;;;;28.89;29.63;99517.28;4978325;28;1890;-25
2022/11/23 12:54:36;;;;;;;;;;;;;;;29.33;28.93;99525.31;4979001;28;1173;-22